Time;durP1;ratioP1;P1;durP2;ratioP2;P2;SDS_P1;SDS_P2;PMS_P1;PMS_P2;Temp;Humidity;BMP_temperature;BMP_pressure;BME280_temperature;BME280_humidity;BME280_pressure;Samples;Min_cycle;Max_cycle;Signal;HPM_P1;HPM_P2
2022/05/15 00:01:51;;;;;;;3.72;2.72;;;15.20;63.00;;;;;;5051637;28;20387;-87
2022/05/15 00:04:16;;;;;;;5.55;2.88;;;15.20;63.00;;;;;;5052300;28;20103;-86
2022/05/15 00:06:42;;;;;;;7.18;2.55;;;15.10;62.90;;;;;;5045943;28;20026;-87
2022/05/15 00:09:08;;;;;;;6.15;2.75;;;15.10;63.00;;;;;;5059257;28;20474;-87
2022/05/15 00:11:34;;;;;;;3.63;2.63;;;15.10;63.10;;;;;;5052386;28;20021;-86
2022/05/15 00:14:02;;;;;;;5.30;2.63;;;15.00;63.00;;;;;;5034031;28;20030;-87
2022/05/15 00:16:29;;;;;;;4.00;2.63;;;15.00;63.30;;;;;;5042884;28;20047;-88
2022/05/15 00:18:55;;;;;;;6.30;3.13;;;14.90;63.50;;;;;;5052257;28;20028;-87
2022/05/15 00:21:21;;;;;;;6.70;3.03;;;14.90;63.60;;;;;;5043604;28;20078;-87
2022/05/15 00:23:52;;;;;;;6.35;2.65;;;14.90;63.50;;;;;;5053150;28;20025;-87
2022/05/15 00:26:22;;;;;;;4.27;2.83;;;14.80;63.50;;;;;;5055844;28;20491;-88
2022/05/15 00:28:48;;;;;;;3.75;2.38;;;14.80;63.50;;;;;;5055637;28;20021;-88
2022/05/15 00:31:17;;;;;;;2.83;2.42;;;14.70;63.70;;;;;;5046764;28;20086;-88
2022/05/15 00:34:01;;;;;;;2.72;2.10;;;14.70;64.20;;;;;;5058543;28;20028;-86
2022/05/15 00:36:33;;;;;;;7.55;2.80;;;14.70;64.00;;;;;;5052997;28;20028;-87
2022/05/15 00:38:59;;;;;;;3.28;2.50;;;14.60;63.80;;;;;;5069751;28;20059;-87
2022/05/15 00:41:25;;;;;;;4.55;2.33;;;14.60;63.70;;;;;;5076136;28;20028;-87
2022/05/15 00:43:54;;;;;;;7.15;2.53;;;14.60;63.70;;;;;;5054220;28;20090;-87
2022/05/15 00:46:28;;;;;;;6.00;2.55;;;14.50;64.10;;;;;;5055942;28;20021;-86
2022/05/15 00:48:57;;;;;;;3.88;2.47;;;14.40;64.20;;;;;;5059411;28;20025;-87
2022/05/15 00:51:49;;;;;;;7.50;2.75;;;14.40;64.20;;;;;;5053234;28;20056;-87
2022/05/15 00:54:25;;;;;;;5.77;2.50;;;14.30;64.30;;;;;;5027099;28;20044;-86
2022/05/15 00:56:58;;;;;;;5.28;2.83;;;14.30;64.30;;;;;;5034529;28;20792;-87
2022/05/15 00:59:32;;;;;;;7.32;2.67;;;14.20;64.30;;;;;;5049845;28;20020;-86
2022/05/15 01:01:58;;;;;;;7.93;2.88;;;14.20;64.60;;;;;;5051430;28;20025;-87
2022/05/15 01:04:23;;;;;;;6.63;2.92;;;14.10;64.40;;;;;;5067328;28;20036;-87
2022/05/15 01:06:51;;;;;;;4.22;2.72;;;14.00;64.50;;;;;;5066202;28;20044;-87
2022/05/15 01:09:18;;;;;;;6.25;2.88;;;13.90;64.80;;;;;;5073141;28;20398;-87
2022/05/15 01:11:47;;;;;;;5.20;2.95;;;13.80;64.80;;;;;;5047598;28;20036;-86
2022/05/15 01:14:15;;;;;;;4.47;2.50;;;13.80;65.10;;;;;;5035093;28;20057;-87
2022/05/15 01:16:42;;;;;;;7.22;2.80;;;13.70;65.10;;;;;;5049523;28;20036;-87
2022/05/15 01:19:08;;;;;;;6.30;2.95;;;13.70;65.30;;;;;;5053980;28;20029;-88
2022/05/15 01:21:38;;;;;;;5.30;2.33;;;13.60;65.30;;;;;;5054898;28;20021;-87
2022/05/15 01:24:06;;;;;;;4.10;2.53;;;13.60;65.60;;;;;;5048806;28;20037;-87
2022/05/15 01:26:40;;;;;;;5.25;2.15;;;13.60;65.70;;;;;;5050670;28;20089;-88
2022/05/15 01:29:06;;;;;;;6.78;2.45;;;13.50;65.70;;;;;;5052034;28;20024;-87
2022/05/15 01:31:33;;;;;;;3.03;1.90;;;13.50;65.60;;;;;;5054722;28;20025;-87
2022/05/15 01:33:59;;;;;;;6.45;2.45;;;13.50;65.70;;;;;;5045678;28;20033;-87
2022/05/15 01:36:26;;;;;;;3.17;2.35;;;13.50;65.90;;;;;;5045841;28;20475;-87
2022/05/15 01:38:52;;;;;;;6.38;2.22;;;13.50;66.20;;;;;;5054473;28;20021;-87
2022/05/15 01:41:19;;;;;;;4.40;2.17;;;13.50;66.30;;;;;;5054701;28;20025;-87
2022/05/15 01:43:49;;;;;;;4.30;2.45;;;13.50;66.20;;;;;;5042353;28;20445;-87
2022/05/15 01:46:15;;;;;;;4.18;2.30;;;13.50;66.30;;;;;;5044940;28;20044;-87
2022/05/15 01:48:41;;;;;;;2.20;1.85;;;13.50;66.50;;;;;;5042605;28;20124;-86
2022/05/15 01:51:06;;;;;;;4.50;2.22;;;13.50;66.50;;;;;;5035823;28;20116;-86
2022/05/15 01:53:32;;;;;;;5.18;2.40;;;13.50;66.60;;;;;;5047139;28;20021;-87
2022/05/15 01:55:58;;;;;;;6.80;2.20;;;13.50;66.60;;;;;;5054227;28;20048;-87
2022/05/15 01:58:26;;;;;;;4.72;2.08;;;13.50;66.60;;;;;;5056756;28;20020;-86
2022/05/15 02:00:52;;;;;;;5.22;2.45;;;13.50;66.70;;;;;;5054380;28;20020;-87
2022/05/15 02:03:18;;;;;;;4.80;2.33;;;13.50;66.50;;;;;;5054158;28;20021;-88
2022/05/15 02:05:44;;;;;;;6.68;2.47;;;13.40;66.50;;;;;;5049411;28;20113;-87
2022/05/15 02:08:12;;;;;;;5.20;2.80;;;13.30;66.60;;;;;;5045670;28;20036;-88
2022/05/15 02:10:38;;;;;;;7.18;3.22;;;13.30;66.80;;;;;;5054066;28;20429;-87
2022/05/15 02:13:07;;;;;;;4.88;3.28;;;13.20;66.90;;;;;;5051772;28;20151;-88
2022/05/15 02:15:36;;;;;;;7.28;2.90;;;13.20;67.10;;;;;;5050034;28;20109;-87
2022/05/15 02:18:02;;;;;;;4.25;3.33;;;13.10;67.00;;;;;;5041904;28;20038;-87
2022/05/15 02:20:28;;;;;;;5.35;2.80;;;13.10;67.10;;;;;;5051066;28;20491;-87
2022/05/15 02:22:54;;;;;;;5.10;3.08;;;13.10;67.20;;;;;;5041572;28;20047;-87
2022/05/15 02:25:19;;;;;;;6.70;3.17;;;13.00;67.20;;;;;;5053417;28;20033;-87
2022/05/15 02:27:46;;;;;;;5.22;3.50;;;13.00;67.50;;;;;;5053800;28;20033;-87
2022/05/15 02:30:13;;;;;;;6.78;3.90;;;13.00;67.60;;;;;;5046711;28;20021;-87
2022/05/15 02:32:39;;;;;;;5.28;3.35;;;12.90;67.60;;;;;;5063944;28;20025;-88
2022/05/15 02:35:05;;;;;;;4.85;3.50;;;12.90;67.70;;;;;;5049613;28;20033;-87
2022/05/15 02:37:31;;;;;;;4.43;3.22;;;12.90;67.70;;;;;;5067393;28;20031;-86
2022/05/15 02:39:56;;;;;;;5.68;3.03;;;12.90;67.70;;;;;;5054002;28;20066;-87
2022/05/15 02:42:22;;;;;;;6.82;3.80;;;12.90;68.20;;;;;;5036538;28;20075;-87
2022/05/15 02:44:48;;;;;;;6.70;3.72;;;12.80;67.60;;;;;;5048079;28;20024;-87
2022/05/15 02:47:14;;;;;;;5.43;3.28;;;12.70;67.80;;;;;;5040495;28;20044;-87
2022/05/15 02:52:28;;;;;;;4.75;3.38;;;12.60;68.00;;;;;;5048117;28;20032;-87
2022/05/15 02:54:57;;;;;;;6.00;3.33;;;12.60;68.00;;;;;;5046934;28;20523;-86
2022/05/15 02:57:23;;;;;;;3.03;2.33;;;12.60;68.00;;;;;;5036185;28;20493;-87
2022/05/15 02:59:49;;;;;;;5.80;2.40;;;12.60;68.70;;;;;;5046417;28;20021;-85
2022/05/15 03:02:18;;;;;;;4.63;2.67;;;12.50;68.20;;;;;;5033578;28;20411;-87
2022/05/15 03:04:49;;;;;;;2.58;2.38;;;12.50;68.40;;;;;;5033291;28;20049;-87
2022/05/15 03:07:20;;;;;;;3.75;2.65;;;12.50;68.40;;;;;;5042627;28;20029;-87
2022/05/15 03:09:51;;;;;;;4.07;3.00;;;12.50;68.60;;;;;;5047958;28;20028;-86
2022/05/15 03:12:19;;;;;;;6.47;2.60;;;12.50;68.50;;;;;;5051968;28;20037;-85
2022/05/15 03:14:56;;;;;;;4.25;2.90;;;12.40;68.50;;;;;;5036578;28;20029;-87
2022/05/15 03:17:25;;;;;;;7.15;2.40;;;12.50;68.90;;;;;;5048275;28;20092;-86
2022/05/15 03:19:51;;;;;;;3.80;2.67;;;12.50;68.70;;;;;;5049939;28;20025;-87
2022/05/15 03:22:23;;;;;;;4.63;2.80;;;12.40;68.80;;;;;;5049254;28;20040;-87
2022/05/15 03:24:49;;;;;;;4.43;2.60;;;12.40;68.90;;;;;;5062181;28;20544;-86
2022/05/15 03:27:14;;;;;;;6.13;2.67;;;12.40;68.80;;;;;;5051168;28;20029;-86
2022/05/15 03:29:40;;;;;;;5.13;2.83;;;12.50;69.00;;;;;;5053360;28;20029;-86
2022/05/15 03:32:07;;;;;;;6.35;2.67;;;12.40;68.80;;;;;;5051964;28;20479;-87
2022/05/15 03:34:37;;;;;;;5.03;2.63;;;12.40;68.80;;;;;;5051538;28;20074;-87
2022/05/15 03:37:08;;;;;;;7.35;2.70;;;12.40;68.90;;;;;;5047327;28;20454;-87
2022/05/15 03:39:34;;;;;;;5.05;2.67;;;12.30;69.20;;;;;;5052532;28;20018;-86
2022/05/15 03:41:59;;;;;;;6.78;2.45;;;12.20;69.20;;;;;;5051715;28;20120;-86
2022/05/15 03:44:25;;;;;;;3.67;2.65;;;12.20;69.30;;;;;;5054400;28;20040;-86
2022/05/15 03:46:51;;;;;;;3.33;2.28;;;12.20;69.40;;;;;;5037260;28;20040;-86
2022/05/15 03:49:19;;;;;;;4.20;2.00;;;12.10;69.40;;;;;;5034658;28;20044;-86
2022/05/15 03:51:45;;;;;;;5.20;2.58;;;12.10;69.50;;;;;;5042235;28;20498;-86
2022/05/15 03:54:11;;;;;;;4.60;2.42;;;12.00;69.50;;;;;;5052908;28;20040;-87
2022/05/15 03:56:50;;;;;;;4.13;2.17;;;12.00;70.20;;;;;;5037336;28;20068;-87
2022/05/15 03:59:25;;;;;;;5.70;2.40;;;12.00;69.70;;;;;;5032121;28;20031;-87
2022/05/15 04:01:50;;;;;;;6.22;2.50;;;12.00;69.70;;;;;;5048532;28;20104;-86
2022/05/15 04:04:17;;;;;;;4.65;2.28;;;12.00;69.50;;;;;;5052403;28;20048;-87
2022/05/15 04:06:42;;;;;;;2.85;2.45;;;11.90;69.70;;;;;;5050399;28;20029;-86
2022/05/15 04:09:11;;;;;;;3.92;2.30;;;11.80;69.80;;;;;;5052920;28;20025;-86
2022/05/15 04:11:37;;;;;;;3.55;1.83;;;11.80;70.00;;;;;;5052152;28;20494;-86
2022/05/15 04:14:03;;;;;;;2.75;2.03;;;11.70;70.30;;;;;;5052805;28;20025;-87
2022/05/15 04:21:41;;;;;;;4.45;2.10;;;11.80;69.70;;;;;;5069165;28;19928;-90
2022/05/15 04:24:09;;;;;;;3.40;2.22;;;11.80;70.00;;;;;;5051062;28;20563;-89
2022/05/15 04:26:35;;;;;;;3.20;2.35;;;11.80;70.30;;;;;;5055805;28;20032;-89
2022/05/15 04:29:01;;;;;;;2.28;2.08;;;11.80;70.40;;;;;;5036896;28;20027;-89
2022/05/15 04:31:27;;;;;;;3.45;2.35;;;11.90;70.50;;;;;;5034081;28;20040;-89
2022/05/15 04:33:53;;;;;;;4.28;2.20;;;11.90;70.70;;;;;;5025946;28;20041;-90
2022/05/15 04:36:18;;;;;;;4.05;2.40;;;11.90;70.80;;;;;;5050296;28;20036;-90
2022/05/15 04:38:44;;;;;;;3.28;2.30;;;12.00;71.10;;;;;;5030734;28;20026;-89
2022/05/15 04:41:09;;;;;;;2.70;2.50;;;12.10;71.00;;;;;;5051518;28;20025;-91
2022/05/15 04:43:35;;;;;;;4.65;2.10;;;12.20;70.90;;;;;;5055982;28;20018;-89
2022/05/15 04:46:03;;;;;;;3.20;2.25;;;12.20;70.70;;;;;;5046868;28;20021;-90
2022/05/15 04:48:29;;;;;;;2.63;2.00;;;12.30;70.60;;;;;;5035280;28;20025;-89
2022/05/15 04:50:55;;;;;;;4.65;2.60;;;12.40;70.70;;;;;;5050873;28;20028;-91
2022/05/15 04:53:20;;;;;;;3.10;2.15;;;12.40;70.60;;;;;;5058711;28;20009;-90
2022/05/15 04:55:46;;;;;;;3.88;2.40;;;12.50;70.70;;;;;;5038968;28;20471;-90
2022/05/15 04:58:12;;;;;;;3.63;2.30;;;12.60;70.60;;;;;;5049883;28;20191;-90
2022/05/15 05:00:38;;;;;;;3.78;2.47;;;12.70;70.60;;;;;;5032023;28;20060;-89
2022/05/15 05:03:04;;;;;;;5.45;2.40;;;12.80;70.50;;;;;;5031347;28;20021;-90
2022/05/15 05:05:30;;;;;;;3.22;2.30;;;12.90;70.60;;;;;;5027460;28;20025;-89
2022/05/15 05:07:55;;;;;;;4.00;2.45;;;13.00;70.70;;;;;;5020811;28;20524;-89
2022/05/15 05:10:21;;;;;;;6.55;2.67;;;13.10;70.80;;;;;;5030338;28;20336;-89
2022/05/15 05:12:47;;;;;;;5.60;2.60;;;13.30;70.80;;;;;;5036984;28;20072;-89
2022/05/15 05:15:13;;;;;;;4.88;2.50;;;13.40;70.60;;;;;;5027235;28;20037;-90
2022/05/15 05:17:43;;;;;;;5.15;2.53;;;13.50;70.50;;;;;;5033056;28;20025;-90
2022/05/15 05:20:10;;;;;;;7.50;3.20;;;13.60;70.50;;;;;;5025196;28;20210;-90
2022/05/15 05:22:36;;;;;;;4.07;1.98;;;13.70;70.40;;;;;;5034468;28;20032;-89
2022/05/15 05:25:02;;;;;;;2.80;2.20;;;13.80;70.40;;;;;;5020309;28;20022;-89
2022/05/15 05:27:28;;;;;;;3.67;2.60;;;13.90;70.40;;;;;;5053140;28;20397;-89
2022/05/15 05:29:53;;;;;;;2.97;2.67;;;14.00;70.40;;;;;;5035503;28;20029;-89
2022/05/15 05:32:19;;;;;;;5.70;2.45;;;14.10;70.50;;;;;;5030829;28;20037;-90
2022/05/15 05:34:45;;;;;;;5.80;2.72;;;14.10;70.50;;;;;;5036835;28;20028;-89
2022/05/15 05:37:10;;;;;;;4.20;2.85;;;14.20;70.50;;;;;;5038473;28;20060;-89
2022/05/15 05:39:36;;;;;;;3.97;2.78;;;14.20;70.50;;;;;;5036461;28;20017;-89
2022/05/15 05:42:02;;;;;;;4.10;3.30;;;14.20;70.60;;;;;;5034999;28;20020;-90
2022/05/15 05:44:28;;;;;;;6.00;3.15;;;14.20;70.50;;;;;;5043324;28;20017;-89
2022/05/15 05:46:53;;;;;;;4.07;3.40;;;14.30;70.60;;;;;;5034640;28;20060;-90
2022/05/15 05:49:19;;;;;;;4.20;3.20;;;14.30;70.80;;;;;;5035601;28;20033;-89
2022/05/15 05:51:45;;;;;;;7.00;3.40;;;14.40;70.90;;;;;;5030571;28;20028;-89
2022/05/15 05:54:11;;;;;;;6.20;2.63;;;14.40;71.10;;;;;;5036959;28;20025;-89
2022/05/15 05:56:37;;;;;;;4.18;2.40;;;14.40;71.20;;;;;;5035429;28;20025;-89
2022/05/15 05:59:03;;;;;;;4.38;2.50;;;14.50;71.30;;;;;;5033314;28;20497;-89
2022/05/15 06:01:28;;;;;;;3.28;2.50;;;14.50;71.80;;;;;;5035496;28;20021;-89
2022/05/15 06:06:38;;;;;;;6.25;2.50;;;14.60;71.90;;;;;;5050839;28;20086;-89
2022/05/15 06:09:04;;;;;;;5.00;2.67;;;14.60;71.80;;;;;;5034236;28;20476;-89
2022/05/15 06:11:30;;;;;;;4.28;2.72;;;14.70;72.00;;;;;;5034497;28;20028;-89
2022/05/15 06:13:55;;;;;;;5.22;2.85;;;14.80;72.10;;;;;;5034069;28;20021;-89
2022/05/15 06:16:21;;;;;;;4.35;2.38;;;14.80;72.10;;;;;;5034694;28;20079;-89
2022/05/15 06:18:46;;;;;;;4.20;2.45;;;14.90;72.20;;;;;;5032844;28;20020;-89
2022/05/15 06:21:13;;;;;;;7.32;2.80;;;14.90;72.30;;;;;;5036146;28;20547;-89
2022/05/15 06:23:39;;;;;;;3.65;2.58;;;15.00;72.60;;;;;;5036852;28;20021;-89
2022/05/15 06:26:04;;;;;;;4.25;2.70;;;15.00;72.60;;;;;;5051282;28;20036;-88
2022/05/15 06:28:33;;;;;;;5.32;2.80;;;15.10;72.60;;;;;;5032417;28;20025;-89
2022/05/15 06:30:58;;;;;;;3.92;2.90;;;15.30;72.70;;;;;;5039114;28;20083;-89
2022/05/15 06:33:25;;;;;;;3.58;2.88;;;15.40;72.70;;;;;;5039136;28;20029;-89
2022/05/15 06:35:50;;;;;;;6.20;3.08;;;15.50;72.80;;;;;;5043155;28;20025;-90
2022/05/15 06:38:16;;;;;;;4.55;2.70;;;15.60;72.90;;;;;;5043243;28;20027;-90
2022/05/15 06:40:42;;;;;;;6.40;2.80;;;15.60;73.00;;;;;;5036582;28;20035;-91
2022/05/15 06:43:07;;;;;;;5.10;2.80;;;15.80;73.20;;;;;;5035822;28;20037;-91
2022/05/15 06:45:33;;;;;;;4.43;2.50;;;16.00;73.20;;;;;;5057689;28;20035;-90
2022/05/15 06:47:59;;;;;;;4.57;2.70;;;16.10;72.90;;;;;;5038184;28;20025;-90
2022/05/15 06:50:24;;;;;;;5.25;2.60;;;16.20;72.70;;;;;;5038966;28;20021;-89
2022/05/15 06:52:51;;;;;;;4.35;2.28;;;16.40;72.80;;;;;;5058063;28;20062;-90
2022/05/15 06:55:20;;;;;;;5.75;2.40;;;16.50;72.60;;;;;;5034824;28;20070;-89
2022/05/15 06:57:47;;;;;;;5.40;2.47;;;16.60;72.70;;;;;;5033200;28;20087;-90
2022/05/15 07:00:20;;;;;;;5.30;2.65;;;16.70;72.40;;;;;;5054211;28;20039;-89
2022/05/15 07:05:24;;;;;;;4.35;2.33;;;17.00;72.00;;;;;;5089615;22;20068;-92
2022/05/15 07:07:53;;;;;;;5.90;2.30;;;17.30;72.20;;;;;;5034209;28;20036;-90
2022/05/15 07:10:19;;;;;;;6.80;2.60;;;17.50;71.70;;;;;;5033006;28;20975;-90
2022/05/15 07:12:45;;;;;;;3.72;2.10;;;17.90;71.20;;;;;;5047036;28;20101;-89
2022/05/15 07:15:11;;;;;;;6.28;2.45;;;18.20;70.70;;;;;;5031953;28;20048;-89
2022/05/15 07:17:37;;;;;;;4.60;2.10;;;18.60;70.50;;;;;;5026870;28;20053;-89
2022/05/15 07:20:03;;;;;;;3.25;2.25;;;18.90;70.00;;;;;;5025183;28;20025;-90
2022/05/15 07:22:29;;;;;;;4.80;2.00;;;19.30;69.60;;;;;;5036894;28;20021;-89
2022/05/15 07:24:55;;;;;;;9.00;2.20;;;19.70;69.60;;;;;;5035699;28;20021;-89
2022/05/15 07:27:21;;;;;;;4.63;2.00;;;20.10;68.90;;;;;;5031762;28;20051;-90
2022/05/15 07:29:47;;;;;;;3.80;1.58;;;20.50;68.10;;;;;;5035646;28;20111;-88
2022/05/15 07:32:13;;;;;;;5.50;1.88;;;20.80;67.70;;;;;;5046921;28;20059;-88
2022/05/15 07:34:40;;;;;;;6.07;1.60;;;21.20;66.80;;;;;;5034321;28;20485;-89
2022/05/15 07:37:06;;;;;;;5.40;1.77;;;21.60;66.30;;;;;;5029816;28;20025;-90
2022/05/15 07:39:32;;;;;;;5.68;1.73;;;22.00;65.80;;;;;;5031641;28;20500;-90
2022/05/15 07:41:57;;;;;;;5.72;1.50;;;22.30;65.20;;;;;;5024258;28;20025;-90
2022/05/15 07:44:23;;;;;;;6.72;1.70;;;22.60;64.40;;;;;;5034321;28;20373;-89
2022/05/15 07:46:49;;;;;;;4.07;1.70;;;22.90;64.00;;;;;;5034083;28;20546;-89
2022/05/15 07:49:15;;;;;;;3.40;1.52;;;23.20;63.20;;;;;;5030088;28;20035;-88
2022/05/15 07:51:44;;;;;;;3.25;1.40;;;23.40;62.90;;;;;;5050346;28;20029;-91
2022/05/15 07:54:16;;;;;;;6.15;1.42;;;23.80;62.30;;;;;;5029543;28;20079;-89
2022/05/15 07:56:43;;;;;;;2.78;1.45;;;24.10;61.30;;;;;;5033784;28;20044;-89
2022/05/15 07:59:09;;;;;;;3.85;1.38;;;24.40;60.70;;;;;;5036576;28;20021;-88
2022/05/15 08:01:35;;;;;;;4.00;1.50;;;24.70;60.50;;;;;;5048229;28;20056;-89
2022/05/15 08:04:01;;;;;;;4.18;1.20;;;24.90;59.30;;;;;;5051120;28;20029;-93
2022/05/15 08:09:10;;;;;;;2.83;1.20;;;25.30;58.60;;;;;;5122404;22;20079;-91
2022/05/15 08:11:37;;;;;;;4.13;1.60;;;25.60;58.40;;;;;;5088076;28;20032;-88
2022/05/15 08:14:04;;;;;;;3.50;1.27;;;25.90;57.60;;;;;;5067665;28;20074;-87
2022/05/15 08:16:31;;;;;;;3.75;1.50;;;26.10;56.60;;;;;;5047288;28;20390;-88
2022/05/15 08:24:26;;;;;;;3.08;1.10;;;27.00;55.60;;;;;;5060181;28;20125;-88
2022/05/15 08:26:52;;;;;;;4.50;1.05;;;27.40;55.20;;;;;;5053293;28;20051;-88
2022/05/15 08:29:19;;;;;;;3.28;1.08;;;27.60;54.40;;;;;;5045727;28;20036;-88
2022/05/15 08:31:45;;;;;;;1.85;1.17;;;27.80;53.20;;;;;;5039619;28;20450;-90
2022/05/15 08:34:10;;;;;;;2.17;1.10;;;28.00;52.60;;;;;;5044659;28;20032;-88
2022/05/15 08:36:39;;;;;;;4.18;1.23;;;28.00;52.00;;;;;;5040413;28;20531;-88
2022/05/15 08:39:05;;;;;;;4.65;1.20;;;28.10;51.20;;;;;;5051082;28;20477;-88
2022/05/15 08:41:30;;;;;;;4.40;1.75;;;28.10;51.00;;;;;;5051195;28;20029;-89
2022/05/15 08:44:29;;;;;;;4.18;1.05;;;28.20;50.50;;;;;;5049099;28;20021;-92
2022/05/15 08:47:18;;;;;;;5.78;1.50;;;28.30;50.30;;;;;;5043578;28;20032;-91
2022/05/15 08:49:57;;;;;;;4.22;1.75;;;28.50;50.60;;;;;;5052044;28;20021;-90
2022/05/15 08:52:34;;;;;;;4.38;1.67;;;28.80;49.90;;;;;;5052784;28;20107;-88
2022/05/15 08:55:06;;;;;;;6.05;1.50;;;29.00;49.20;;;;;;5050558;28;20040;-90
2022/05/15 08:57:31;;;;;;;;;;;29.10;49.10;;;;;;5053197;28;20025;-90
2022/05/15 08:59:58;;;;;;;2.90;1.33;;;29.20;50.40;;;;;;5056484;28;19912;-90
2022/05/15 09:02:25;;;;;;;6.97;1.70;;;29.30;49.10;;;;;;5050414;28;20035;-95
2022/05/15 09:04:54;;;;;;;6.03;1.40;;;29.40;48.60;;;;;;5055516;28;20021;-90
2022/05/15 09:07:35;;;;;;;3.22;1.02;;;29.40;47.10;;;;;;5066243;28;20009;-92
2022/05/15 09:10:13;;;;;;;2.80;1.00;;;29.50;46.70;;;;;;5067514;28;20010;-92
2022/05/15 09:12:43;;;;;;;3.42;1.15;;;29.70;46.80;;;;;;5069563;28;20020;-92
2022/05/15 09:15:22;;;;;;;6.28;1.80;;;30.00;45.80;;;;;;5064969;28;20057;-91
2022/05/15 09:17:58;;;;;;;3.00;1.30;;;30.50;45.70;;;;;;5051587;28;20052;-90
2022/05/15 09:20:24;;;;;;;2.58;0.93;;;31.10;45.30;;;;;;5053681;28;20021;-90
2022/05/15 09:23:10;;;;;;;2.30;1.10;;;31.50;44.40;;;;;;5050132;28;20025;-89
2022/05/15 09:25:37;;;;;;;3.17;1.17;;;31.70;44.20;;;;;;5055375;28;20025;-90
2022/05/15 09:28:08;;;;;;;2.47;1.00;;;32.30;43.10;;;;;;5055595;28;20021;-91
2022/05/15 09:30:45;;;;;;;6.13;1.38;;;33.00;41.80;;;;;;5052230;28;20024;-90
2022/05/15 09:33:35;;;;;;;2.13;0.80;;;33.80;41.50;;;;;;5053455;28;20017;-92
2022/05/15 09:36:35;;;;;;;1.80;1.00;;;34.80;41.40;;;;;;5054041;28;20021;-91
2022/05/15 09:39:09;;;;;;;3.28;1.13;;;35.40;40.00;;;;;;5051313;28;20374;-90
2022/05/15 09:44:27;;;;;;;2.40;1.10;;;36.70;38.10;;;;;;5056625;28;20048;-90
2022/05/15 09:47:21;;;;;;;4.72;0.80;;;37.50;37.60;;;;;;5041951;28;20433;-91
2022/05/15 09:49:46;;;;;;;3.95;0.93;;;37.90;36.30;;;;;;5048399;28;20078;-91
2022/05/15 09:52:19;;;;;;;4.25;0.80;;;38.30;36.80;;;;;;5037483;28;20033;-91
2022/05/15 09:54:47;;;;;;;2.50;1.00;;;38.70;35.60;;;;;;5042254;28;20454;-90
2022/05/15 09:57:26;;;;;;;2.20;0.80;;;39.20;35.20;;;;;;5051932;28;20037;-91
2022/05/15 10:00:05;;;;;;;2.65;0.93;;;39.70;34.60;;;;;;5049181;28;20090;-91
2022/05/15 10:02:50;;;;;;;2.25;0.90;;;40.30;34.50;;;;;;5046483;28;20432;-91
2022/05/15 10:05:27;;;;;;;2.80;0.90;;;40.80;34.10;;;;;;5051799;28;20116;-91
2022/05/15 10:08:08;;;;;;;1.92;0.93;;;41.30;33.40;;;;;;5045870;28;20363;-91
2022/05/15 10:10:41;;;;;;;2.05;0.82;;;41.60;32.80;;;;;;5038742;28;20029;-91
2022/05/15 10:13:32;;;;;;;1.95;0.75;;;41.90;32.80;;;;;;5049091;28;20121;-90
2022/05/15 10:16:09;;;;;;;3.92;1.42;;;42.20;32.50;;;;;;5038020;28;20462;-90
2022/05/15 10:18:43;;;;;;;2.33;0.88;;;42.40;32.00;;;;;;5039891;28;20045;-90
2022/05/15 10:21:10;;;;;;;1.65;0.90;;;42.50;32.10;;;;;;5048812;28;20036;-90
2022/05/15 10:23:52;;;;;;;4.80;1.02;;;42.50;31.50;;;;;;5053058;28;20339;-90
2022/05/15 10:26:26;;;;;;;3.15;0.80;;;42.30;31.20;;;;;;5053058;28;20115;-90
2022/05/15 10:29:13;;;;;;;3.83;1.00;;;42.10;31.30;;;;;;5033831;28;20462;-90
2022/05/15 10:31:54;;;;;;;1.45;0.90;;;42.00;31.80;;;;;;5041651;28;20026;-91
2022/05/15 10:34:25;;;;;;;1.95;1.00;;;41.70;31.60;;;;;;5035255;28;20378;-89
2022/05/15 10:37:09;;;;;;;;;;;41.40;32.10;;;;;;5035284;28;20367;-89
2022/05/15 10:39:57;;;;;;;2.70;0.90;;;41.10;33.50;;;;;;5034069;28;19905;-90
2022/05/15 10:42:31;;;;;;;5.18;0.80;;;40.40;32.80;;;;;;5034461;28;20040;-90
2022/05/15 10:45:15;;;;;;;3.63;1.05;;;39.80;33.00;;;;;;5036881;28;20025;-91
2022/05/15 10:48:28;;;;;;;4.30;0.98;;;39.00;33.10;;;;;;5062087;28;20504;-91
2022/05/15 10:51:17;;;;;;;1.45;0.88;;;38.30;33.60;;;;;;5025160;28;20032;-91
2022/05/15 10:57:29;;;;;;;4.00;0.98;;;36.60;34.50;;;;;;5047927;28;20052;-91
2022/05/15 11:00:06;;;;;;;3.15;0.95;;;35.90;34.90;;;;;;5049695;28;20089;-93
2022/05/15 11:02:47;;;;;;;2.55;0.80;;;35.50;35.70;;;;;;5062684;28;20025;-94
2022/05/15 11:05:22;;;;;;;2.27;0.80;;;35.00;35.00;;;;;;5065234;28;20022;-94
2022/05/15 11:07:59;;;;;;;1.90;1.13;;;34.50;35.30;;;;;;5073808;28;20029;-90
2022/05/15 11:10:33;;;;;;;1.95;0.80;;;34.10;35.60;;;;;;5056356;28;20383;-90
2022/05/15 11:13:17;;;;;;;1.38;0.70;;;33.80;35.90;;;;;;5057493;28;20021;-90
2022/05/15 11:16:06;;;;;;;2.30;0.75;;;33.60;35.60;;;;;;5051272;28;20040;-91
2022/05/15 11:18:31;;;;;;;4.28;1.00;;;33.30;35.70;;;;;;5048745;28;20453;-91
2022/05/15 11:21:03;;;;;;;1.85;0.80;;;33.00;36.00;;;;;;5046243;28;20041;-90
2022/05/15 11:23:59;;;;;;;2.67;0.80;;;32.80;35.80;;;;;;5053764;28;20021;-88
2022/05/15 11:26:41;;;;;;;4.95;1.00;;;32.60;36.30;;;;;;5042702;28;20031;-89
2022/05/15 11:29:11;;;;;;;1.75;0.90;;;32.30;36.20;;;;;;5049312;28;20519;-90
2022/05/15 11:31:43;;;;;;;2.22;0.90;;;32.00;36.40;;;;;;5056631;28;20521;-90
2022/05/15 11:34:11;;;;;;;2.08;1.23;;;31.90;36.40;;;;;;5058775;28;20112;-89
2022/05/15 11:36:40;;;;;;;2.72;1.00;;;31.70;37.10;;;;;;5051132;28;20029;-91
2022/05/15 11:39:15;;;;;;;7.03;1.10;;;31.60;36.70;;;;;;5050728;28;20025;-90
2022/05/15 11:41:44;;;;;;;2.20;1.05;;;31.60;36.50;;;;;;5032477;28;20068;-90
2022/05/15 11:44:18;;;;;;;1.52;0.80;;;31.40;36.60;;;;;;5040105;28;20079;-91
2022/05/15 11:46:46;;;;;;;3.47;1.00;;;31.40;36.50;;;;;;5044623;28;20032;-91
2022/05/15 11:49:16;;;;;;;4.10;0.90;;;31.30;36.40;;;;;;5050767;28;20799;-90
2022/05/15 11:51:43;;;;;;;2.92;0.90;;;31.20;36.10;;;;;;5052901;28;20540;-91
2022/05/15 11:54:26;;;;;;;2.30;0.80;;;31.10;36.40;;;;;;5033372;28;20029;-92
2022/05/15 11:56:54;;;;;;;1.77;0.90;;;31.00;36.60;;;;;;5038336;28;20429;-91
2022/05/15 11:59:22;;;;;;;2.80;0.95;;;31.00;36.80;;;;;;5030383;28;20022;-91
2022/05/15 12:01:49;;;;;;;3.88;0.90;;;31.00;36.90;;;;;;5033541;28;20028;-91
2022/05/15 12:04:18;;;;;;;0.75;0.70;;;30.90;36.70;;;;;;5047883;28;20021;-91
2022/05/15 12:06:56;;;;;;;2.50;1.30;;;30.80;36.70;;;;;;5051337;28;20104;-91
2022/05/15 12:09:25;;;;;;;4.80;1.33;;;30.70;36.90;;;;;;5043120;28;20068;-90
2022/05/15 12:11:54;;;;;;;2.60;0.77;;;30.80;37.50;;;;;;5029993;28;20088;-91
2022/05/15 12:14:26;;;;;;;1.95;1.13;;;30.80;37.30;;;;;;5050282;28;20032;-91
2022/05/15 12:16:58;;;;;;;3.78;0.95;;;30.70;37.50;;;;;;5038995;28;20026;-91
2022/05/15 12:19:37;;;;;;;1.80;0.80;;;30.80;37.70;;;;;;5049429;28;20481;-91
2022/05/15 12:22:06;;;;;;;1.67;1.23;;;30.80;37.60;;;;;;5052083;28;20052;-91
2022/05/15 12:24:34;;;;;;;2.15;0.80;;;30.80;37.40;;;;;;5053824;28;20048;-91
2022/05/15 12:27:31;;;;;;;5.05;1.08;;;30.80;37.40;;;;;;5054123;28;20024;-91
2022/05/15 12:30:05;;;;;;;2.65;0.82;;;30.90;37.10;;;;;;5051857;28;20037;-91
2022/05/15 12:32:46;;;;;;;1.77;0.82;;;30.80;37.30;;;;;;5047896;28;20025;-90
2022/05/15 12:35:20;;;;;;;4.82;1.23;;;30.90;37.20;;;;;;5053514;28;20485;-92
2022/05/15 12:38:12;;;;;;;4.57;1.00;;;30.80;37.00;;;;;;5054371;28;20029;-92
2022/05/15 12:40:57;;;;;;;2.30;1.10;;;30.70;37.40;;;;;;5050000;28;20566;-91
2022/05/15 12:43:27;;;;;;;3.05;1.05;;;30.70;37.30;;;;;;5054376;28;20032;-90
2022/05/15 12:45:54;;;;;;;1.58;0.85;;;30.60;37.10;;;;;;5047108;28;20018;-94
2022/05/15 12:48:21;;;;;;;2.25;0.80;;;30.50;37.40;;;;;;5076820;28;20063;-95
2022/05/15 12:51:05;;;;;;;1.95;1.00;;;30.50;37.60;;;;;;5058624;28;20013;-92
2022/05/15 12:53:47;;;;;;;2.88;0.93;;;30.30;37.60;;;;;;5069868;28;20024;-93
2022/05/15 12:56:22;;;;;;;3.28;1.27;;;30.10;37.70;;;;;;5066478;28;20018;-91
2022/05/15 12:58:50;;;;;;;6.38;1.30;;;29.90;38.10;;;;;;5056938;28;20021;-91
2022/05/15 13:01:17;;;;;;;4.10;1.40;;;29.80;37.90;;;;;;5046082;28;20116;-91
2022/05/15 13:03:47;;;;;;;4.43;0.80;;;29.70;38.80;;;;;;5046832;28;20366;-92
2022/05/15 13:06:17;;;;;;;5.65;0.90;;;29.50;37.90;;;;;;5054243;28;20444;-92
2022/05/15 13:08:51;;;;;;;4.05;0.98;;;29.40;38.10;;;;;;5053251;28;20392;-92
2022/05/15 13:11:36;;;;;;;2.63;0.90;;;29.20;38.20;;;;;;5055304;28;20028;-93
2022/05/15 13:14:01;;;;;;;2.75;1.15;;;29.20;38.50;;;;;;5059772;28;20021;-92
2022/05/15 13:16:28;;;;;;;3.65;1.10;;;29.10;38.50;;;;;;5056646;28;20549;-91
2022/05/15 13:18:55;;;;;;;2.10;0.98;;;29.00;38.60;;;;;;5060985;28;20042;-91
2022/05/15 13:21:38;;;;;;;2.20;1.10;;;28.90;38.40;;;;;;5056244;28;20033;-91
2022/05/15 13:24:06;;;;;;;3.67;1.30;;;28.80;38.60;;;;;;5045945;28;20088;-92
2022/05/15 13:26:51;;;;;;;3.90;0.90;;;28.60;38.90;;;;;;5051560;28;20075;-91
2022/05/15 13:29:23;;;;;;;1.30;1.00;;;28.50;39.10;;;;;;5068644;28;20032;-95
2022/05/15 13:31:53;;;;;;;3.22;1.00;;;28.40;39.20;;;;;;5070023;28;20138;-94